CIC weather

Chico Municipal Airport
Chico, California, United States

Public forecast

Using degrees Fahrenheit for public forecast. Weather courtesy of forecast.io.

Current aviation weather report (METAR) for Chico Municipal Airport

Retrieved 2020/02/18 06:35 UTC (0 seconds ago):

KCIC 180635Z AUTO 00000KT 10SM CLR 09/M05 A3007 RMK AO1

Closest aviation forecast (TAF) to Chico Municipal Airport

Closest forecast is Red Bluff Municipal Airport, 28.0 nm (51.8 km) NW. Retrieved 2020/02/18 06:22 UTC (0 seconds ago):

TAF KRBL 180520Z 1806/1906 34011KT P6SM FEW250 FM190300 VRB04KT P6SM SKC